Time;durP1;ratioP1;P1;durP2;ratioP2;P2;SDS_P1;SDS_P2;PMS_P1;PMS_P2;Temp;Humidity;BMP_temperature;BMP_pressure;BME280_temperature;BME280_humidity;BME280_pressure;Samples;Min_cycle;Max_cycle;Signal;HPM_P1;HPM_P2
2022/12/17 13:07:23;;;;;;;12.93;11.93;;;;;;;12.10;100.00;92819.84;5089952;28;20224;-72
2022/12/17 13:09:53;;;;;;;10.67;10.07;;;;;;;12.34;100.00;92820.59;5090355;28;20180;-72
2022/12/17 13:12:44;;;;;;;13.27;12.07;;;;;;;12.35;100.00;92822.13;5086113;28;20228;-72
2022/12/17 13:15:19;;;;;;;14.07;12.97;;;;;;;12.34;100.00;92821.34;5090441;28;20176;-72
2022/12/17 13:18:15;;;;;;;13.37;12.27;;;;;;;11.96;100.00;92829.47;5090168;28;20193;-72
2022/12/17 13:20:41;;;;;;;13.30;12.20;;;;;;;11.90;100.00;92830.59;5076712;28;20224;-72
2022/12/17 13:23:15;;;;;;;14.80;13.37;;;;;;;11.95;100.00;92854.06;5083067;28;20184;-72
2022/12/17 13:25:40;;;;;;;13.20;11.93;;;;;;;11.69;100.00;92850.97;5089610;28;20240;-72
2022/12/17 13:28:26;;;;;;;12.63;11.63;;;;;;;11.86;100.00;92845.28;5085174;28;20187;-72
2022/12/17 13:31:01;;;;;;;12.87;11.70;;;;;;;11.94;100.00;92852.53;5089479;28;20262;-72
2022/12/17 13:33:41;;;;;;;13.90;12.50;;;;;;;11.93;100.00;92861.41;5089943;28;20804;-72
2022/12/17 13:36:09;;;;;;;13.53;12.43;;;;;;;12.07;100.00;92857.06;5088876;28;20231;-72
2022/12/17 13:38:50;;;;;;;14.93;13.53;;;;;;;11.93;100.00;92856.19;5089856;28;20240;-72
2022/12/17 13:41:19;;;;;;;14.73;13.43;;;;;;;11.86;100.00;92855.75;5084324;28;20251;-72
2022/12/17 13:43:56;;;;;;;15.40;13.93;;;;;;;11.66;100.00;92846.28;5072489;28;20177;-72
2022/12/17 13:46:40;;;;;;;15.37;14.03;;;;;;;11.52;100.00;92855.06;5088898;28;20212;-72
2022/12/17 13:49:24;;;;;;;15.60;14.30;;;;;;;11.38;100.00;92837.41;5090004;28;20202;-72
2022/12/17 13:52:20;;;;;;;16.20;14.57;;;;;;;11.27;100.00;92854.25;5078647;28;20225;-72
2022/12/17 13:54:46;;;;;;;15.43;13.93;;;;;;;11.26;100.00;92831.78;5076510;28;20215;-72
2022/12/17 13:57:20;;;;;;;17.17;15.50;;;;;;;11.35;100.00;92851.03;5084968;28;20219;-72
2022/12/17 14:00:04;;;;;;;16.50;14.77;;;;;;;11.56;100.00;92827.28;5088507;28;20206;-72
2022/12/17 14:02:31;;;;;;;17.00;13.80;;;;;;;11.25;100.00;92851.13;5073436;28;20230;-73
2022/12/17 14:05:00;;;;;;;14.70;13.47;;;;;;;11.08;100.00;92845.53;5079841;28;20187;-72
2022/12/17 14:07:29;;;;;;;13.07;11.77;;;;;;;10.90;100.00;92869.75;5077292;28;20226;-73
2022/12/17 14:09:55;;;;;;;13.83;12.60;;;;;;;11.18;100.00;92874.22;5089647;28;20185;-72
2022/12/17 14:12:26;;;;;;;14.30;13.20;;;;;;;11.12;100.00;92872.69;5089316;28;20228;-72
2022/12/17 14:14:56;;;;;;;13.73;12.73;;;;;;;11.12;100.00;92871.91;5089526;28;20270;-72
2022/12/17 14:17:26;;;;;;;13.60;12.40;;;;;;;11.00;100.00;92884.56;5088915;28;20289;-72
2022/12/17 14:20:03;;;;;;;12.93;11.83;;;;;;;10.97;100.00;92885.09;5089230;28;20233;-71
2022/12/17 14:22:37;;;;;;;13.23;12.23;;;;;;;10.82;100.00;92878.16;5069422;28;20228;-72
2022/12/17 14:25:09;;;;;;;14.57;13.37;;;;;;;10.75;100.00;92898.59;5085015;28;20180;-72
2022/12/17 14:27:35;;;;;;;14.10;13.00;;;;;;;11.04;100.00;92904.63;5089128;28;20233;-73
2022/12/17 14:30:19;;;;;;;14.17;12.47;;;;;;;11.09;100.00;92901.19;5085868;28;20179;-72
2022/12/17 14:32:45;;;;;;;14.00;12.67;;;;;;;10.96;100.00;92907.81;5081522;28;20226;-72
2022/12/17 14:35:34;;;;;;;16.50;13.17;;;;;;;10.50;100.00;92906.59;5087464;28;20174;-72
2022/12/17 14:37:59;;;;;;;15.20;13.80;;;;;;;10.56;100.00;92909.94;5066529;28;20211;-72
2022/12/17 14:40:25;;;;;;;15.23;13.77;;;;;;;10.40;100.00;92911.84;5084271;28;20206;-72
2022/12/17 14:42:57;;;;;;;14.33;13.13;;;;;;;10.48;100.00;92898.25;5088324;28;20208;-72
2022/12/17 14:45:24;;;;;;;14.17;12.73;;;;;;;10.27;100.00;92891.59;5092836;28;20201;-72
2022/12/17 14:47:55;;;;;;;13.90;12.90;;;;;;;10.43;100.00;92911.31;5092952;28;20184;-72
2022/12/17 14:50:21;;;;;;;14.37;13.07;;;;;;;10.42;100.00;92909.75;5091912;28;20214;-72
2022/12/17 14:52:52;;;;;;;16.83;15.53;;;;;;;10.30;100.00;92916.34;5092614;28;20202;-72
2022/12/17 14:55:32;;;;;;;13.93;12.67;;;;;;;10.45;100.00;92900.59;5088719;28;20268;-72
2022/12/17 14:58:12;;;;;;;14.40;13.27;;;;;;;10.26;100.00;92915.31;5092510;28;20346;-73
2022/12/17 15:00:40;;;;;;;15.80;14.20;;;;;;;10.12;100.00;92922.16;5092433;28;20205;-72
2022/12/17 15:03:10;;;;;;;14.63;13.27;;;;;;;10.17;100.00;92932.56;5092744;28;20211;-72
2022/12/17 15:05:36;;;;;;;14.27;13.07;;;;;;;9.99;100.00;92941.75;5090122;28;20278;-72
2022/12/17 15:08:02;;;;;;;14.97;13.50;;;;;;;10.22;100.00;92930.75;5081863;28;20181;-73
2022/12/17 15:10:28;;;;;;;41.53;26.50;;;;;;;10.05;100.00;92940.69;5088319;28;20208;-71
2022/12/17 15:12:53;;;;;;;17.67;15.87;;;;;;;9.88;100.00;92936.84;5092869;28;20227;-72
2022/12/17 15:15:20;;;;;;;17.23;15.53;;;;;;;9.87;100.00;92941.25;5092194;28;20181;-73
2022/12/17 15:17:45;;;;;;;17.57;15.80;;;;;;;9.88;100.00;92939.44;5092807;28;20196;-72
2022/12/17 15:20:17;;;;;;;16.60;15.10;;;;;;;9.58;100.00;92903.81;5090632;28;20213;-72
2022/12/17 15:22:42;;;;;;;15.77;14.47;;;;;;;9.91;100.00;92934.47;5092096;28;20210;-71
2022/12/17 15:25:16;;;;;;;14.37;13.27;;;;;;;9.93;100.00;92942.81;5090806;28;20211;-70
2022/12/17 15:27:42;;;;;;;31.17;23.20;;;;;;;9.90;100.00;92932.91;5087855;28;20222;-70
2022/12/17 15:30:13;;;;;;;26.03;19.00;;;;;;;9.72;100.00;92946.53;5091425;28;20186;-72
2022/12/17 15:32:38;;;;;;;21.07;18.73;;;;;;;9.85;100.00;92945.97;5090433;28;20232;-72
2022/12/17 15:35:04;;;;;;;19.37;16.73;;;;;;;9.78;100.00;92942.84;5088521;28;20190;-71
2022/12/17 15:37:29;;;;;;;21.23;18.90;;;;;;;9.80;100.00;92951.22;5090040;28;20221;-71
2022/12/17 15:39:56;;;;;;;23.90;21.40;;;;;;;9.67;100.00;92949.13;5089831;28;21184;-72
2022/12/17 15:45:06;;;;;;;17.17;15.77;;;;;;;9.50;100.00;92965.06;5090433;28;20215;-71
2022/12/17 15:47:31;;;;;;;18.43;16.77;;;;;;;9.45;100.00;92974.72;5088294;28;20221;-70
2022/12/17 15:49:57;;;;;;;17.60;16.17;;;;;;;9.46;100.00;92963.25;5088463;28;20198;-71
2022/12/17 15:52:22;;;;;;;19.13;17.13;;;;;;;9.48;100.00;92966.38;5089788;28;20217;-71
2022/12/17 15:54:48;;;;;;;18.00;16.37;;;;;;;9.48;100.00;92967.16;5090859;28;20205;-70
2022/12/17 15:57:13;;;;;;;19.93;18.03;;;;;;;9.34;100.00;92960.13;5088126;28;20243;-70
2022/12/17 15:59:38;;;;;;;23.03;18.17;;;;;;;9.38;100.00;92961.19;5088774;28;20216;-69
2022/12/17 16:02:04;;;;;;;18.17;16.67;;;;;;;9.38;100.00;92972.38;5084160;28;20220;-70
2022/12/17 16:04:29;;;;;;;36.30;28.60;;;;;;;9.22;100.00;92972.63;5063567;28;20184;-70
2022/12/17 16:06:55;;;;;;;19.63;17.77;;;;;;;9.30;100.00;92964.31;5085833;28;20280;-69
2022/12/17 16:09:23;;;;;;;20.57;18.03;;;;;;;9.37;100.00;92962.22;5090304;28;20252;-71
2022/12/17 16:11:52;;;;;;;17.13;15.63;;;;;;;9.47;100.00;92976.03;5076118;28;20267;-70
2022/12/17 16:14:18;;;;;;;20.17;18.33;;;;;;;9.50;100.00;92985.13;5084951;28;20185;-71
2022/12/17 16:16:43;;;;;;;15.47;14.10;;;;;;;9.34;100.00;92991.38;5072785;28;20218;-71
2022/12/17 16:19:09;;;;;;;16.40;15.07;;;;;;;9.31;100.00;92978.88;5085733;28;20213;-71
2022/12/17 16:21:34;;;;;;;17.27;15.37;;;;;;;9.31;100.00;92997.13;5083160;28;20739;-70
2022/12/17 16:24:00;;;;;;;17.83;15.93;;;;;;;9.46;100.00;93010.94;5089687;28;20223;-70
2022/12/17 16:26:25;;;;;;;14.13;12.93;;;;;;;9.53;100.00;93014.06;5089276;28;20224;-69
2022/12/17 16:28:50;;;;;;;14.27;13.00;;;;;;;9.50;100.00;93012.00;5084247;28;20206;-71
2022/12/17 16:31:16;;;;;;;15.43;14.17;;;;;;;9.36;100.00;93012.75;5065180;28;20236;-71
2022/12/17 16:33:43;;;;;;;13.87;12.60;;;;;;;9.41;100.00;93016.16;5085103;28;20214;-71
2022/12/17 16:36:12;;;;;;;13.70;12.63;;;;;;;9.44;100.00;93009.63;5085211;28;20239;-70
2022/12/17 16:38:45;;;;;;;14.60;13.30;;;;;;;9.37;100.00;93024.78;5088435;28;20182;-72
2022/12/17 16:41:11;;;;;;;14.07;12.97;;;;;;;9.39;100.00;93014.84;5089402;28;20232;-70
2022/12/17 16:43:37;;;;;;;17.23;15.47;;;;;;;9.44;100.00;93009.63;5065980;28;20174;-71
2022/12/17 16:46:03;;;;;;;24.90;16.83;;;;;;;9.44;100.00;93014.84;5086029;28;20262;-71
2022/12/17 16:48:34;;;;;;;23.53;19.77;;;;;;;9.48;100.00;93023.69;5089657;28;20192;-69
2022/12/17 16:51:00;;;;;;;47.77;29.73;;;;;;;9.29;100.00;93010.41;5088956;28;20255;-69
2022/12/17 16:53:25;;;;;;;48.87;30.30;;;;;;;9.41;100.00;93033.63;5089745;28;20192;-69
2022/12/17 16:55:50;;;;;;;52.90;33.00;;;;;;;9.42;100.00;93040.38;5089430;28;20237;-70
2022/12/17 16:58:16;;;;;;;40.73;28.97;;;;;;;9.29;100.00;93020.06;5083971;28;20179;-69
2022/12/17 17:00:42;;;;;;;27.57;22.23;;;;;;;9.30;100.00;93045.88;5088135;28;20248;-76
2022/12/17 17:03:08;;;;;;;31.83;22.30;;;;;;;9.27;100.00;93053.41;5089147;28;20169;-72
2022/12/17 17:05:36;;;;;;;27.63;22.43;;;;;;;9.41;100.00;93050.03;5081489;28;20219;-70
2022/12/17 17:08:02;;;;;;;35.97;23.20;;;;;;;9.32;100.00;93054.19;5083119;28;20193;-71
2022/12/17 17:10:28;;;;;;;33.83;24.50;;;;;;;9.26;100.00;93060.44;5090225;28;20253;-72
2022/12/17 17:12:54;;;;;;;28.17;23.20;;;;;;;9.16;100.00;93044.00;5090071;28;20296;-71
2022/12/17 17:15:21;;;;;;;33.30;24.33;;;;;;;8.86;100.00;93016.09;5084805;28;20182;-71
2022/12/17 17:17:46;;;;;;;27.60;21.23;;;;;;;9.19;100.00;93051.31;5088775;28;20181;-72
2022/12/17 17:20:12;;;;;;;25.33;19.93;;;;;;;9.19;100.00;93061.72;5088195;28;20242;-72
2022/12/17 17:22:37;;;;;;;32.20;24.50;;;;;;;9.12;100.00;93066.41;5088189;28;20224;-72
2022/12/17 17:25:03;;;;;;;23.97;21.17;;;;;;;9.15;100.00;93055.47;5086438;28;20192;-72
2022/12/17 17:27:29;;;;;;;20.90;18.77;;;;;;;8.96;100.00;93054.41;5088163;28;20232;-72
2022/12/17 17:29:55;;;;;;;31.23;25.53;;;;;;;8.88;100.00;93062.72;5085925;28;20197;-71
2022/12/17 17:32:21;;;;;;;26.80;22.20;;;;;;;8.94;100.00;93078.09;5083757;28;20223;-72
2022/12/17 17:34:46;;;;;;;19.43;17.43;;;;;;;8.89;100.00;93075.47;5086416;28;20189;-71
2022/12/17 17:37:12;;;;;;;23.77;19.93;;;;;;;8.79;100.00;93074.66;5086281;28;20225;-72
2022/12/17 17:39:38;;;;;;;27.77;23.43;;;;;;;8.78;100.00;93081.69;5085352;28;20208;-71
2022/12/17 17:42:04;;;;;;;17.60;15.87;;;;;;;8.79;100.00;93083.25;5088575;28;20212;-71
2022/12/17 17:44:29;;;;;;;15.07;13.87;;;;;;;8.84;100.00;93078.06;5086810;28;20185;-71
2022/12/17 17:46:54;;;;;;;17.47;15.83;;;;;;;8.82;100.00;93090.56;5069311;28;20236;-71
2022/12/17 17:49:21;;;;;;;17.57;15.77;;;;;;;8.79;100.00;93082.47;5087845;28;20196;-74
2022/12/17 17:51:46;;;;;;;20.60;18.83;;;;;;;8.85;100.00;93097.06;5085552;28;20228;-71
2022/12/17 17:54:11;;;;;;;17.30;15.90;;;;;;;8.97;100.00;93095.00;5088038;28;20219;-72
2022/12/17 17:56:39;;;;;;;17.23;15.77;;;;;;;8.99;100.00;93092.94;5086099;28;20251;-72
2022/12/17 17:59:11;;;;;;;17.77;16.27;;;;;;;9.01;100.00;93096.09;5085304;28;20199;-71
2022/12/17 18:01:39;;;;;;;16.50;15.20;;;;;;;8.97;100.00;93102.81;5083124;28;20270;-72
2022/12/17 18:04:07;;;;;;;18.97;17.17;;;;;;;8.95;100.00;93110.13;5086409;28;20188;-71
2022/12/17 18:06:35;;;;;;;19.67;18.07;;;;;;;8.95;100.00;93103.06;5087693;28;20228;-70
2022/12/17 18:09:01;;;;;;;14.80;13.70;;;;;;;8.88;100.00;93110.38;5087387;28;20189;-71
2022/12/17 18:11:28;;;;;;;14.97;13.90;;;;;;;9.01;100.00;93119.50;5068547;28;20430;-71
2022/12/17 18:13:55;;;;;;;14.50;13.40;;;;;;;8.97;100.00;93119.25;5085166;28;20205;-72
2022/12/17 18:16:23;;;;;;;16.07;14.57;;;;;;;8.93;100.00;93120.00;5085351;28;20220;-70
2022/12/17 18:18:49;;;;;;;14.97;13.87;;;;;;;9.01;100.00;93127.34;5084751;28;20172;-70
2022/12/17 18:21:18;;;;;;;15.27;14.13;;;;;;;9.07;100.00;93128.91;5085823;28;20233;-70
2022/12/17 18:23:44;;;;;;;17.83;16.10;;;;;;;8.86;100.00;93125.44;5088659;28;20204;-71
2022/12/17 18:26:18;;;;;;;19.00;17.40;;;;;;;8.94;100.00;93127.56;5086427;28;21106;-70
2022/12/17 18:28:45;;;;;;;20.17;18.27;;;;;;;9.04;100.00;93134.63;5084734;28;20198;-69
2022/12/17 18:31:15;;;;;;;17.53;16.03;;;;;;;9.00;100.00;93139.56;5086810;28;20239;-70
2022/12/17 18:33:43;;;;;;;24.17;21.00;;;;;;;8.99;100.00;93147.63;5085200;28;20205;-71
2022/12/17 18:36:14;;;;;;;25.17;22.53;;;;;;;9.00;100.00;93157.00;5080889;28;20291;-71
2022/12/17 18:38:40;;;;;;;17.93;16.03;;;;;;;8.91;100.00;93174.94;5080846;28;20201;-71
2022/12/17 18:44:04;;;;;;;35.63;23.03;;;;;;;9.08;100.00;93172.13;5083840;28;20203;-70
2022/12/17 18:46:30;;;;;;;32.73;25.20;;;;;;;9.18;100.00;93177.38;5086254;28;20257;-70
2022/12/17 18:48:57;;;;;;;38.77;26.30;;;;;;;8.69;100.00;93148.28;5085216;28;20189;-69
2022/12/17 18:51:22;;;;;;;35.43;25.13;;;;;;;8.73;100.00;93164.19;5086503;28;20235;-71
2022/12/17 18:53:48;;;;;;;33.97;25.13;;;;;;;8.92;100.00;93186.91;5087786;28;20244;-71
2022/12/17 18:56:14;;;;;;;33.67;26.17;;;;;;;8.89;100.00;93189.22;5087005;28;20220;-71
2022/12/17 18:58:39;;;;;;;37.23;26.27;;;;;;;8.92;100.00;93194.72;5082182;28;20251;-73
2022/12/17 19:01:05;;;;;;;36.00;26.00;;;;;;;8.91;100.00;93194.97;5086040;28;20232;-70
2022/12/17 19:03:31;;;;;;;33.57;25.03;;;;;;;8.81;100.00;93193.09;5086405;28;20177;-71
2022/12/17 19:05:58;;;;;;;47.70;29.67;;;;;;;8.95;100.00;93206.47;5086887;28;20255;-71
2022/12/17 19:08:23;;;;;;;46.43;32.30;;;;;;;8.85;100.00;93215.00;5069891;28;20196;-71
2022/12/17 19:10:48;;;;;;;37.07;28.33;;;;;;;8.77;100.00;93219.91;5086648;28;20221;-71
2022/12/17 19:13:14;;;;;;;31.40;26.43;;;;;;;8.68;100.00;93226.63;5084153;28;20177;-71
2022/12/17 19:15:39;;;;;;;28.87;23.90;;;;;;;8.58;100.00;93221.34;5087330;28;20221;-71
2022/12/17 19:18:05;;;;;;;32.07;25.57;;;;;;;8.60;100.00;93230.47;5087632;28;20176;-71
2022/12/17 19:20:30;;;;;;;31.20;25.77;;;;;;;8.68;100.00;93234.44;5083905;28;20258;-72
2022/12/17 19:22:55;;;;;;;26.47;21.80;;;;;;;8.77;100.00;93236.31;5087686;28;20359;-71
2022/12/17 19:25:21;;;;;;;29.60;22.97;;;;;;;8.71;100.00;93228.72;5083753;28;20209;-71
2022/12/17 19:27:47;;;;;;;28.00;22.43;;;;;;;8.77;100.00;93243.34;5086505;28;20189;-71
2022/12/17 19:30:13;;;;;;;31.03;22.33;;;;;;;8.88;100.00;93231.94;5090892;28;20215;-71
2022/12/17 19:32:38;;;;;;;26.43;22.67;;;;;;;8.87;100.00;93240.81;5091014;28;20231;-71
2022/12/17 19:35:04;;;;;;;25.10;22.40;;;;;;;8.85;100.00;93248.06;5089061;28;20249;-72
2022/12/17 19:37:29;;;;;;;25.93;22.13;;;;;;;8.83;100.00;93230.09;5090542;28;20218;-72
2022/12/17 19:39:54;;;;;;;27.87;22.50;;;;;;;8.94;100.00;93243.94;5089765;28;20515;-71
2022/12/17 19:42:26;;;;;;;25.93;22.13;;;;;;;8.90;100.00;93240.28;5091044;28;20216;-69
2022/12/17 19:44:55;;;;;;;24.53;21.83;;;;;;;8.74;100.00;93236.03;5090453;28;20181;-68
2022/12/17 19:47:21;;;;;;;24.30;21.77;;;;;;;8.90;100.00;93242.91;5085892;28;20232;-68
2022/12/17 19:49:47;;;;;;;27.50;21.53;;;;;;;8.87;100.00;93243.41;5088843;28;20180;-72
2022/12/17 19:52:13;;;;;;;29.47;21.90;;;;;;;8.86;100.00;93250.41;5089419;28;20213;-69
2022/12/17 19:54:38;;;;;;;25.30;22.37;;;;;;;9.01;100.00;93252.34;5090338;28;20181;-70
2022/12/17 19:57:04;;;;;;;32.33;24.17;;;;;;;9.00;100.00;93255.94;5090177;28;20212;-70
2022/12/17 19:59:29;;;;;;;29.30;22.63;;;;;;;8.99;100.00;93249.97;5089661;28;20183;-69
2022/12/17 20:01:55;;;;;;;27.20;20.83;;;;;;;9.14;100.00;93259.66;5090244;28;20217;-70
2022/12/17 20:04:20;;;;;;;26.63;22.93;;;;;;;9.07;100.00;93266.94;5090468;28;20263;-68
2022/12/17 20:06:45;;;;;;;24.10;21.43;;;;;;;9.22;100.00;93265.19;5087308;28;20235;-70
2022/12/17 20:09:12;;;;;;;32.83;24.07;;;;;;;9.16;100.00;93270.63;5087841;28;20180;-70
2022/12/17 20:11:39;;;;;;;42.40;37.93;;;;;;;9.08;100.00;93274.50;5087398;28;20220;-69
2022/12/17 20:14:25;;;;;;;34.37;23.97;;;;;;;9.08;100.00;93278.91;5092009;28;20204;-68
2022/12/17 20:16:54;;;;;;;35.17;24.30;;;;;;;9.10;100.00;93282.06;5088014;28;20235;-70
2022/12/17 20:19:25;;;;;;;30.63;24.17;;;;;;;8.98;100.00;93279.66;5091630;28;20177;-70
2022/12/17 20:21:51;;;;;;;29.17;23.53;;;;;;;9.22;100.00;93287.84;5090716;28;20288;-68
2022/12/17 20:24:17;;;;;;;25.77;21.00;;;;;;;9.33;100.00;93292.88;5089521;28;20192;-69
2022/12/17 20:26:45;;;;;;;24.17;20.53;;;;;;;9.24;100.00;93289.19;5091332;28;20230;-69
2022/12/17 20:29:11;;;;;;;21.27;19.20;;;;;;;9.33;100.00;93297.28;5089874;28;20189;-70
2022/12/17 20:31:36;;;;;;;18.73;16.97;;;;;;;9.20;100.00;93297.72;5089441;28;20280;-69
2022/12/17 20:34:07;;;;;;;19.13;17.10;;;;;;;9.28;100.00;93298.06;5089553;28;20161;-69
2022/12/17 20:36:33;;;;;;;18.53;16.70;;;;;;;9.44;100.00;93309.31;5089438;28;20243;-70
2022/12/17 20:38:59;;;;;;;18.77;17.23;;;;;;;9.35;100.00;93311.63;5084599;28;20204;-70
2022/12/17 20:41:27;;;;;;;19.07;17.10;;;;;;;9.38;100.00;93313.75;5088917;28;20231;-69
2022/12/17 20:43:53;;;;;;;21.93;19.83;;;;;;;9.42;100.00;93317.41;5086788;28;20211;-68
2022/12/17 20:46:22;;;;;;;20.63;18.10;;;;;;;9.12;100.00;93311.25;5086373;28;20212;-68
2022/12/17 20:48:48;;;;;;;21.23;19.13;;;;;;;9.09;100.00;93325.56;5085866;28;20193;-70
2022/12/17 20:51:22;;;;;;;21.23;19.10;;;;;;;9.12;100.00;93324.28;5088514;28;20232;-72
2022/12/17 20:53:47;;;;;;;20.87;18.97;;;;;;;8.89;100.00;93335.03;5086961;28;20182;-69
2022/12/17 20:56:15;;;;;;;18.63;16.97;;;;;;;8.81;100.00;93336.28;5088685;28;20288;-70
2022/12/17 20:58:42;;;;;;;19.53;17.93;;;;;;;8.68;100.00;93330.72;5088289;28;20184;-69
2022/12/17 21:01:07;;;;;;;20.57;18.60;;;;;;;8.74;100.00;93342.75;5088187;28;20221;-69
2022/12/17 21:03:33;;;;;;;17.83;16.03;;;;;;;8.69;100.00;93342.72;5084670;28;20191;-69
2022/12/17 21:06:13;;;;;;;18.60;16.73;;;;;;;8.76;100.00;93345.91;5088199;28;20213;-69
2022/12/17 21:08:40;;;;;;;18.13;16.53;;;;;;;8.79;100.00;93345.41;5088589;28;20168;-68
2022/12/17 21:11:06;;;;;;;18.83;17.07;;;;;;;8.64;100.00;93348.66;5084859;28;20274;-69
2022/12/17 21:13:33;;;;;;;17.30;15.60;;;;;;;8.77;100.00;93355.28;5088534;28;20199;-68
2022/12/17 21:16:04;;;;;;;19.63;17.53;;;;;;;8.72;100.00;93355.22;5087295;28;20239;-69
2022/12/17 21:18:31;;;;;;;18.10;16.37;;;;;;;8.67;100.00;93350.00;5087533;28;20188;-68
2022/12/17 21:21:03;;;;;;;18.27;16.57;;;;;;;8.68;100.00;93361.97;5087385;28;20228;-69
2022/12/17 21:23:29;;;;;;;18.83;17.13;;;;;;;8.70;100.00;93359.91;5089532;28;20188;-69
2022/12/17 21:26:14;;;;;;;19.03;17.17;;;;;;;8.90;100.00;93366.03;5088068;28;20243;-69
2022/12/17 21:28:41;;;;;;;18.77;16.97;;;;;;;8.71;100.00;93367.47;5087672;28;20177;-68
2022/12/17 21:31:25;;;;;;;18.80;17.20;;;;;;;8.63;100.00;93370.53;5088268;28;20265;-69
2022/12/17 21:33:53;;;;;;;17.57;15.97;;;;;;;8.58;100.00;93373.06;5087993;28;20173;-69
2022/12/17 21:36:19;;;;;;;17.07;15.37;;;;;;;8.65;100.00;93362.47;5085827;28;20231;-68
2022/12/17 21:38:46;;;;;;;17.07;15.50;;;;;;;8.63;100.00;93369.72;5085721;28;20185;-68
2022/12/17 21:41:17;;;;;;;16.00;14.60;;;;;;;8.71;100.00;93371.88;5088198;28;20263;-69
2022/12/17 21:43:42;;;;;;;18.40;16.70;;;;;;;8.76;100.00;93379.75;5083993;28;20193;-69
2022/12/17 21:46:09;;;;;;;17.77;15.97;;;;;;;8.64;100.00;93382.50;5087884;28;20217;-69
2022/12/17 21:48:37;;;;;;;16.63;15.20;;;;;;;8.69;100.00;93371.34;5070967;28;20279;-70
2022/12/17 21:51:04;;;;;;;16.77;15.40;;;;;;;8.79;100.00;93382.63;5082674;28;20241;-69
2022/12/17 21:53:29;;;;;;;16.90;15.50;;;;;;;8.83;100.00;93386.31;5088723;28;20926;-69
2022/12/17 21:56:04;;;;;;;17.27;15.60;;;;;;;8.87;100.00;93387.38;5088483;28;20221;-68
2022/12/17 21:58:29;;;;;;;17.37;15.87;;;;;;;8.94;100.00;93387.16;5085779;28;20180;-69
2022/12/17 22:00:54;;;;;;;16.57;15.27;;;;;;;8.86;100.00;93392.81;5088065;28;20247;-68
2022/12/17 22:03:20;;;;;;;17.83;16.33;;;;;;;8.57;100.00;93387.13;5085636;28;20183;-69
2022/12/17 22:05:45;;;;;;;16.53;15.23;;;;;;;8.62;100.00;93383.78;5084420;28;20225;-68
2022/12/17 22:08:11;;;;;;;17.83;16.23;;;;;;;8.56;100.00;93384.78;5088592;28;20254;-68
2022/12/17 22:10:39;;;;;;;16.33;14.93;;;;;;;8.40;100.00;93373.44;5087990;28;20185;-68
2022/12/17 22:15:49;;;;;;;16.20;14.90;;;;;;;8.49;100.00;93394.59;5087965;28;20792;-71
2022/12/17 22:18:14;;;;;;;15.23;13.83;;;;;;;8.54;100.00;93399.84;5089122;28;20185;-71
2022/12/17 22:20:40;;;;;;;16.10;14.60;;;;;;;8.59;100.00;93394.69;5084112;28;20247;-71
2022/12/17 22:23:05;;;;;;;15.50;14.30;;;;;;;8.49;100.00;93395.38;5082397;28;20216;-72
2022/12/17 22:25:30;;;;;;;15.93;14.63;;;;;;;8.40;100.00;93396.88;5088884;28;20201;-71
2022/12/17 22:27:56;;;;;;;15.97;14.67;;;;;;;8.64;100.00;93398.13;5089419;28;20184;-71
2022/12/17 22:33:05;;;;;;;16.30;14.90;;;;;;;8.60;100.00;93402.25;5089446;28;20227;-71
2022/12/17 22:35:34;;;;;;;15.73;14.33;;;;;;;8.35;100.00;93398.63;5089248;28;20173;-72
2022/12/17 22:38:00;;;;;;;15.50;14.10;;;;;;;8.34;100.00;93397.06;5071383;28;20192;-71
2022/12/17 22:40:26;;;;;;;15.50;14.13;;;;;;;8.41;100.00;93397.63;5088532;28;20219;-71
2022/12/17 22:45:39;;;;;;;15.37;14.00;;;;;;;8.37;100.00;93399.16;5089146;28;20215;-72
2022/12/17 22:48:07;;;;;;;14.83;13.53;;;;;;;8.42;100.00;93404.41;5089130;28;20252;-72
2022/12/17 22:50:32;;;;;;;12.90;12.10;;;;;;;8.26;100.00;93411.28;5086480;28;20200;-72
2022/12/17 22:52:57;;;;;;;13.70;12.63;;;;;;;8.27;100.00;93415.44;5074680;28;20185;-71
2022/12/17 22:55:23;;;;;;;13.47;12.57;;;;;;;7.98;100.00;93409.63;5088830;28;20205;-71
2022/12/17 22:57:48;;;;;;;13.77;12.73;;;;;;;8.04;100.00;93405.28;5089215;28;20191;-71
2022/12/17 23:00:22;;;;;;;13.07;12.07;;;;;;;8.13;100.00;93433.22;5094402;28;20209;-71
2022/12/17 23:02:52;;;;;;;12.90;11.93;;;;;;;8.04;100.00;93423.50;5090049;28;20227;-71
2022/12/17 23:05:17;;;;;;;11.77;10.97;;;;;;;7.91;100.00;93429.84;5089709;28;20191;-71
2022/12/17 23:07:43;;;;;;;13.27;12.27;;;;;;;7.89;100.00;93425.91;5087716;28;20217;-71
2022/12/17 23:10:08;;;;;;;14.13;12.87;;;;;;;7.97;100.00;93428.88;5094557;28;20184;-71
2022/12/17 23:15:24;;;;;;;13.30;12.40;;;;;;;7.84;100.00;93428.44;5092921;28;20219;-71
2022/12/17 23:17:51;;;;;;;13.30;12.40;;;;;;;7.83;100.00;93438.06;5092066;28;20265;-71
2022/12/17 23:20:17;;;;;;;13.37;12.47;;;;;;;7.88;100.00;93447.72;5088545;28;20235;-71
2022/12/17 23:22:42;;;;;;;14.13;13.03;;;;;;;7.86;100.00;93437.56;5084443;28;20233;-69
2022/12/17 23:25:09;;;;;;;13.37;12.40;;;;;;;7.70;100.00;93448.81;5089121;28;20188;-71
2022/12/17 23:27:34;;;;;;;13.10;12.23;;;;;;;7.87;100.00;93459.16;5092414;28;20232;-71
2022/12/17 23:30:00;;;;;;;13.13;12.23;;;;;;;7.89;100.00;93438.91;5093320;28;20181;-71
2022/12/17 23:32:25;;;;;;;12.87;11.97;;;;;;;7.51;100.00;93439.72;5095584;28;20278;-71
2022/12/17 23:34:50;;;;;;;12.57;11.63;;;;;;;7.54;100.00;93452.22;5086898;28;20181;-71
2022/12/17 23:37:16;;;;;;;13.03;12.23;;;;;;;7.59;100.00;93464.50;5081401;28;20316;-71
2022/12/17 23:39:41;;;;;;;13.27;12.37;;;;;;;7.52;100.00;93467.25;5092142;28;20239;-71
2022/12/17 23:42:07;;;;;;;12.67;11.87;;;;;;;7.65;100.00;93468.72;5091768;28;20213;-71
2022/12/17 23:44:32;;;;;;;14.33;13.17;;;;;;;7.41;100.00;93475.94;5092393;28;20188;-71
2022/12/17 23:46:58;;;;;;;12.53;11.77;;;;;;;7.35;100.00;93482.06;5092051;28;20225;-70
2022/12/17 23:49:23;;;;;;;12.70;11.93;;;;;;;7.10;100.00;93468.69;5087713;28;20213;-71
2022/12/17 23:51:49;;;;;;;13.73;12.83;;;;;;;7.22;100.00;93482.38;5091850;28;20220;-71
2022/12/17 23:54:14;;;;;;;23.57;22.10;;;;;;;7.33;100.00;93483.34;5092368;28;20199;-71
2022/12/17 23:56:39;;;;;;;13.00;12.20;;;;;;;7.15;100.00;93484.38;5091969;28;20221;-71
2022/12/17 23:59:05;;;;;;;13.10;12.30;;;;;;;7.15;100.00;93492.16;5090909;28;20197;-71
